Adams, New York
Current Conditions -  °F | °C
As of 5:56 AM on Sunday 21 Dec 2014 (Local Time) from KART Reporting Station
Overcast Overcast  
Wind Chill: 26°   Ceiling: 2200
Heat Index: 26°   Visibility: 10mi
Dew Point: 20°   Wind: 3mph
Humidity: 78%   Direction: 50°NE
Pressure: 30.3"   Gusts: NA
Location:  43.81°N, 76.02°W
Report Text: KART 211056Z AUTO 05003KT 10SM OVC022 M03/M07 A3030 RMK AO2 SLP267 T10331067
Loading
Personal Weather Stations






























Interactive Weather Map New forecast layout! Learn more

10-Day Weather Forecast

Advertisements
Track Severe Weather on mobile